createdAt,value
2022-07-30T00:00:33.144Z,0.00
2022-07-30T00:01:37.622Z,0.00
2022-07-30T00:02:42.076Z,0.00
2022-07-30T00:03:46.567Z,0.00
2022-07-30T00:04:50.989Z,0.00
2022-07-30T00:05:55.443Z,0.00
2022-07-30T00:07:00.157Z,0.00
2022-07-30T00:08:04.375Z,0.00
2022-07-30T00:09:08.857Z,0.00
2022-07-30T00:10:13.341Z,0.00
2022-07-30T00:11:17.797Z,0.00
2022-07-30T00:12:22.256Z,0.00
2022-07-30T00:13:26.811Z,0.00
2022-07-30T00:14:31.267Z,0.00
2022-07-30T00:15:35.716Z,0.00
2022-07-30T00:16:40.201Z,0.00
2022-07-30T00:17:46.720Z,0.00
2022-07-30T00:18:49.117Z,0.00
2022-07-30T00:19:53.684Z,0.00
2022-07-30T00:20:58.064Z,0.00
2022-07-30T00:22:02.520Z,0.00
2022-07-30T00:23:07.005Z,0.00
2022-07-30T00:24:11.467Z,0.00
2022-07-30T00:25:15.918Z,0.00
2022-07-30T00:26:20.376Z,0.00
2022-07-30T00:27:24.837Z,0.00
2022-07-30T00:28:29.341Z,0.00
2022-07-30T00:29:33.788Z,0.00
2022-07-30T00:30:38.282Z,0.00
2022-07-30T00:31:42.711Z,0.00
2022-07-30T00:32:47.187Z,0.00
2022-07-30T00:33:51.659Z,0.00
2022-07-30T00:34:56.119Z,0.00
2022-07-30T00:36:00.644Z,0.00
2022-07-30T00:37:05.098Z,0.00
2022-07-30T00:38:09.580Z,0.00
2022-07-30T00:39:14.070Z,0.00
2022-07-30T00:40:18.539Z,0.00
2022-07-30T00:41:23.000Z,0.00
2022-07-30T00:42:27.461Z,0.00
2022-07-30T00:43:31.951Z,0.00
2022-07-30T00:44:36.422Z,0.00
2022-07-30T00:45:40.961Z,0.00
2022-07-30T00:46:45.361Z,0.00
2022-07-30T00:47:49.829Z,0.00
2022-07-30T00:48:54.413Z,0.00
2022-07-30T00:49:58.801Z,0.00
2022-07-30T00:51:03.309Z,0.00
2022-07-30T00:52:07.723Z,0.00
2022-07-30T00:53:12.206Z,0.00
2022-07-30T00:54:16.673Z,0.00
2022-07-30T00:55:21.164Z,0.00
2022-07-30T00:56:25.623Z,0.00
2022-07-30T00:57:30.095Z,0.00
2022-07-30T00:58:34.592Z,0.00
2022-07-30T00:59:39.053Z,0.00
2022-07-30T01:00:43.538Z,0.00
2022-07-30T01:01:48.006Z,0.00
2022-07-30T01:02:52.451Z,0.00
2022-07-30T01:03:56.951Z,0.00
2022-07-30T01:05:01.404Z,0.00
2022-07-30T01:06:05.892Z,0.00
2022-07-30T01:07:10.346Z,0.00
2022-07-30T01:08:14.846Z,0.00
2022-07-30T01:09:19.325Z,0.00
2022-07-30T01:10:23.795Z,0.00
2022-07-30T01:11:28.247Z,0.00
2022-07-30T01:12:32.717Z,0.00
2022-07-30T01:13:37.187Z,0.00
2022-07-30T01:14:41.669Z,0.00
2022-07-30T01:15:46.153Z,0.00
2022-07-30T01:16:50.691Z,0.00
2022-07-30T01:17:55.085Z,0.00
2022-07-30T01:18:59.595Z,0.00
2022-07-30T01:20:04.064Z,0.00
2022-07-30T01:21:08.536Z,0.00
2022-07-30T01:22:12.999Z,0.00
2022-07-30T01:23:17.475Z,0.00
2022-07-30T01:24:21.959Z,0.00
2022-07-30T01:25:26.427Z,0.00
2022-07-30T01:26:30.887Z,0.00
2022-07-30T01:27:35.361Z,0.00
2022-07-30T01:28:39.818Z,0.00
2022-07-30T01:29:44.300Z,0.00
2022-07-30T01:30:50.038Z,0.00
2022-07-30T01:33:19.123Z,0.00
2022-07-30T01:34:23.615Z,0.00
2022-07-30T01:35:28.048Z,0.00
2022-07-30T01:36:32.505Z,0.00
2022-07-30T01:37:36.945Z,0.00
2022-07-30T01:38:41.394Z,0.00
2022-07-30T01:39:45.859Z,0.00
2022-07-30T01:40:50.314Z,0.00
2022-07-30T01:41:54.753Z,0.00
2022-07-30T01:42:59.198Z,0.00
2022-07-30T01:44:03.644Z,0.00
2022-07-30T01:45:08.106Z,0.00
2022-07-30T01:46:12.628Z,0.00
2022-07-30T01:47:16.997Z,0.00
2022-07-30T01:48:21.447Z,0.00
2022-07-30T01:49:25.975Z,0.00
2022-07-30T01:50:30.349Z,0.00
2022-07-30T01:51:37.620Z,0.00
2022-07-30T01:52:39.251Z,0.00
2022-07-30T01:53:43.696Z,0.00
2022-07-30T01:54:48.149Z,0.00
2022-07-30T01:55:52.612Z,0.00
2022-07-30T01:56:57.426Z,0.00
2022-07-30T01:58:01.499Z,0.00
2022-07-30T01:59:05.945Z,0.00
2022-07-30T02:00:10.419Z,0.00
2022-07-30T02:01:14.890Z,0.00
2022-07-30T02:02:19.300Z,0.00
2022-07-30T02:03:23.833Z,0.00
2022-07-30T02:04:28.212Z,0.00
2022-07-30T02:05:32.679Z,0.00
2022-07-30T02:06:37.120Z,0.00
2022-07-30T02:07:41.550Z,0.00
2022-07-30T02:08:46.020Z,0.00
2022-07-30T02:09:50.471Z,0.00
2022-07-30T02:10:54.941Z,0.00
2022-07-30T02:11:59.420Z,0.00
2022-07-30T02:13:03.861Z,0.00
2022-07-30T02:14:08.302Z,0.00
2022-07-30T02:15:12.773Z,0.00
2022-07-30T02:16:17.298Z,0.00
2022-07-30T02:17:21.690Z,0.00
2022-07-30T02:18:26.131Z,0.00
2022-07-30T02:19:32.805Z,0.00
2022-07-30T02:20:35.799Z,0.00
2022-07-30T02:21:39.513Z,0.00
2022-07-30T02:22:43.954Z,0.00
2022-07-30T02:23:48.411Z,0.00
2022-07-30T02:24:52.856Z,0.00
2022-07-30T02:25:57.324Z,0.00
2022-07-30T02:27:02.237Z,0.00
2022-07-30T02:28:06.247Z,0.00
2022-07-30T02:29:11.594Z,0.00
2022-07-30T02:30:15.174Z,0.00
2022-07-30T02:31:19.645Z,0.00
2022-07-30T02:32:24.056Z,0.00
2022-07-30T02:33:28.506Z,0.00
2022-07-30T02:34:32.944Z,0.00
2022-07-30T02:35:37.412Z,0.00
2022-07-30T02:36:41.855Z,0.00
2022-07-30T02:37:46.313Z,0.00
2022-07-30T02:38:50.807Z,0.00
2022-07-30T02:39:55.206Z,0.00
2022-07-30T02:40:59.686Z,0.00
2022-07-30T02:42:04.136Z,0.00
2022-07-30T02:43:08.576Z,0.00
2022-07-30T02:44:13.036Z,0.00
2022-07-30T02:45:17.577Z,0.00
2022-07-30T02:46:22.074Z,0.00
2022-07-30T02:47:26.477Z,0.00
2022-07-30T02:48:34.298Z,0.00
2022-07-30T02:49:35.366Z,0.00
2022-07-30T02:50:39.868Z,0.00
2022-07-30T02:51:44.317Z,0.00
2022-07-30T02:52:48.776Z,0.00
2022-07-30T02:53:53.217Z,0.00
2022-07-30T02:54:57.671Z,0.00
2022-07-30T02:56:02.137Z,0.00
2022-07-30T02:57:06.577Z,0.00
2022-07-30T02:58:11.027Z,0.00
2022-07-30T02:59:15.484Z,0.00
2022-07-30T03:00:19.949Z,0.00
2022-07-30T03:01:24.418Z,0.00
2022-07-30T03:02:29.822Z,0.00
2022-07-30T03:03:33.309Z,0.00
2022-07-30T03:04:37.769Z,0.00
2022-07-30T03:05:42.239Z,0.00
2022-07-30T03:06:46.680Z,0.00
2022-07-30T03:07:51.139Z,0.00
2022-07-30T03:08:55.611Z,0.00
2022-07-30T03:10:00.050Z,0.00
2022-07-30T03:11:04.525Z,0.00
2022-07-30T03:12:08.980Z,0.00
2022-07-30T03:13:13.431Z,0.00
2022-07-30T03:14:17.887Z,0.00
2022-07-30T03:15:22.333Z,4.00
2022-07-30T03:16:26.881Z,4.00
2022-07-30T03:18:57.195Z,4.00
2022-07-30T03:20:01.676Z,4.00
2022-07-30T03:21:06.135Z,8.00
2022-07-30T03:22:10.591Z,4.00
2022-07-30T03:23:15.034Z,8.00
2022-07-30T03:24:19.475Z,8.00
2022-07-30T03:25:23.925Z,12.00
2022-07-30T03:26:28.395Z,12.00
2022-07-30T03:27:32.837Z,12.00
2022-07-30T03:28:37.312Z,12.00
2022-07-30T03:29:41.754Z,16.00
2022-07-30T03:30:46.225Z,16.00
2022-07-30T03:31:50.739Z,20.00
2022-07-30T03:32:55.155Z,24.00
2022-07-30T03:33:59.600Z,24.00
2022-07-30T03:35:06.641Z,32.00
2022-07-30T03:36:08.527Z,36.00
2022-07-30T03:37:12.963Z,40.00
2022-07-30T03:38:17.406Z,44.00
2022-07-30T03:39:21.863Z,52.00
2022-07-30T03:40:26.316Z,52.00
2022-07-30T03:41:30.778Z,60.00
2022-07-30T03:42:35.238Z,68.00
2022-07-30T03:43:39.677Z,76.00
2022-07-30T03:44:44.127Z,84.00
2022-07-30T03:45:48.578Z,92.00
2022-07-30T03:46:53.102Z,100.00
2022-07-30T03:47:57.510Z,112.00
2022-07-30T03:49:02.039Z,124.00
2022-07-30T03:50:06.421Z,132.00
2022-07-30T03:51:10.887Z,140.00
2022-07-30T03:52:15.348Z,152.00
2022-07-30T03:53:19.797Z,164.00
2022-07-30T03:54:24.262Z,184.00
2022-07-30T03:55:28.699Z,192.00
2022-07-30T03:56:33.178Z,204.00
2022-07-30T03:57:37.629Z,220.00
2022-07-30T03:58:42.096Z,232.00
2022-07-30T03:59:46.550Z,244.00
2022-07-30T04:00:51.009Z,260.00
2022-07-30T04:01:55.596Z,280.00
2022-07-30T04:02:59.972Z,288.00
2022-07-30T04:04:04.458Z,308.00
2022-07-30T04:05:08.864Z,324.00
2022-07-30T04:06:13.320Z,340.00
2022-07-30T04:07:17.789Z,356.00
2022-07-30T04:08:22.250Z,372.00
2022-07-30T04:09:26.706Z,384.00
2022-07-30T04:10:31.171Z,408.00
2022-07-30T04:11:41.332Z,424.00
2022-07-30T04:12:40.093Z,448.00
2022-07-30T04:13:44.542Z,460.00
2022-07-30T04:14:48.992Z,480.00
2022-07-30T04:16:17.741Z,504.00
2022-07-30T04:16:58.282Z,528.00
2022-07-30T04:18:02.372Z,552.00
2022-07-30T04:19:06.823Z,564.00
2022-07-30T04:20:14.216Z,596.00
2022-07-30T04:21:16.060Z,616.00
2022-07-30T04:22:20.254Z,620.00
2022-07-30T04:23:24.723Z,676.00
2022-07-30T04:24:29.173Z,672.00
2022-07-30T04:25:33.636Z,692.00
2022-07-30T04:26:38.094Z,740.00
2022-07-30T04:28:03.013Z,748.00
2022-07-30T04:28:47.034Z,752.00
2022-07-30T04:29:51.482Z,792.00
2022-07-30T04:30:55.953Z,832.00
2022-07-30T04:32:00.428Z,812.00
2022-07-30T04:33:04.878Z,872.00
2022-07-30T04:34:09.344Z,940.00
2022-07-30T04:35:13.795Z,904.00
2022-07-30T04:36:18.254Z,948.00
2022-07-30T04:37:22.726Z,1000.00
2022-07-30T04:38:27.177Z,1012.00
2022-07-30T04:39:31.637Z,1036.00
2022-07-30T04:40:36.087Z,1108.00
2022-07-30T04:41:48.458Z,1156.00
2022-07-30T04:42:45.014Z,1168.00
2022-07-30T04:43:49.466Z,1192.00
2022-07-30T04:59:58.302Z,1900.00
2022-07-30T05:01:02.742Z,1908.00
2022-07-30T05:02:07.199Z,1960.00
2022-07-30T05:04:37.503Z,2044.00
2022-07-30T05:05:42.025Z,2120.00
2022-07-30T05:06:46.443Z,2164.00
2022-07-30T05:07:50.911Z,2188.00
2022-07-30T05:08:55.353Z,2244.00
2022-07-30T05:09:59.823Z,2300.00
2022-07-30T05:11:04.270Z,2288.00
2022-07-30T05:12:08.714Z,2240.00
2022-07-30T05:13:13.238Z,2220.00
2022-07-30T05:14:17.614Z,2180.00
2022-07-30T05:15:22.076Z,2164.00
2022-07-30T05:16:26.532Z,2208.00
2022-07-30T05:17:30.964Z,2328.00
2022-07-30T05:18:35.391Z,2328.00
2022-07-30T05:19:39.834Z,2328.00
2022-07-30T05:20:44.265Z,2372.00
2022-07-30T05:21:48.714Z,2420.00
2022-07-30T05:22:53.190Z,2496.00
2022-07-30T05:23:57.634Z,2460.00
2022-07-30T05:25:02.068Z,2504.00
2022-07-30T05:26:06.504Z,2504.00
2022-07-30T05:27:10.935Z,2508.00
2022-07-30T05:28:15.425Z,2552.00
2022-07-30T05:29:20.367Z,2620.00
2022-07-30T05:30:27.492Z,2700.00
2022-07-30T05:31:28.732Z,2772.00
2022-07-30T05:32:33.147Z,2672.00
2022-07-30T05:33:40.961Z,2684.00
2022-07-30T05:34:42.047Z,2756.00
2022-07-30T05:35:46.476Z,2772.00
2022-07-30T05:36:50.925Z,2784.00
2022-07-30T05:37:55.368Z,2756.00
2022-07-30T05:38:59.820Z,2808.00
2022-07-30T05:40:04.246Z,2832.00
2022-07-30T05:41:19.114Z,2876.00
2022-07-30T05:42:13.127Z,2952.00
2022-07-30T05:43:17.587Z,2904.00
2022-07-30T05:44:24.008Z,2896.00
2022-07-30T05:45:26.573Z,2960.00
2022-07-30T05:46:31.052Z,3012.00
2022-07-30T05:47:35.436Z,3040.00
2022-07-30T05:48:39.924Z,3048.00
2022-07-30T05:49:44.338Z,3040.00
2022-07-30T05:50:48.768Z,3048.00
2022-07-30T05:51:53.210Z,2972.00
2022-07-30T05:52:57.639Z,3072.00
2022-07-30T05:54:02.091Z,3068.00
2022-07-30T05:55:06.520Z,3080.00
2022-07-30T05:56:10.941Z,3132.00
2022-07-30T05:57:15.359Z,3140.00
2022-07-30T05:58:19.820Z,3168.00
2022-07-30T05:59:24.239Z,3192.00
2022-07-30T06:00:28.691Z,3180.00
2022-07-30T06:01:33.182Z,3200.00
2022-07-30T06:02:37.569Z,3220.00
2022-07-30T06:03:42.030Z,3256.00
2022-07-30T06:04:46.593Z,3304.00
2022-07-30T06:05:50.892Z,3352.00
2022-07-30T06:06:55.321Z,3344.00
2022-07-30T06:07:59.760Z,3248.00
2022-07-30T06:09:04.215Z,3192.00
2022-07-30T06:10:08.640Z,3160.00
2022-07-30T06:11:13.071Z,3160.00
2022-07-30T06:12:17.502Z,3160.00
2022-07-30T06:13:21.932Z,3160.00
2022-07-30T06:14:26.392Z,3160.00
2022-07-30T06:15:30.857Z,3160.00
2022-07-30T06:16:35.247Z,3168.00
2022-07-30T06:17:41.288Z,3160.00
2022-07-30T06:18:44.120Z,3372.00
2022-07-30T06:19:48.553Z,3268.00
2022-07-30T06:20:53.005Z,3416.00
2022-07-30T06:22:06.321Z,3440.00
2022-07-30T06:23:01.896Z,3428.00
2022-07-30T06:24:06.335Z,3400.00
2022-07-30T06:25:10.753Z,3452.00
2022-07-30T06:26:15.194Z,3504.00
2022-07-30T06:27:19.622Z,3508.00
2022-07-30T06:28:39.810Z,3580.00
2022-07-30T06:29:28.506Z,3540.00
2022-07-30T06:30:32.961Z,3500.00
2022-07-30T06:31:37.373Z,3496.00
2022-07-30T06:32:41.805Z,3524.00
2022-07-30T06:33:46.265Z,3588.00
2022-07-30T06:34:57.291Z,3604.00
2022-07-30T06:35:55.160Z,3620.00
2022-07-30T06:36:59.797Z,3628.00
2022-07-30T06:38:07.261Z,3604.00
2022-07-30T06:39:08.587Z,3596.00
2022-07-30T06:40:13.005Z,3632.00
2022-07-30T06:41:17.436Z,3664.00
2022-07-30T06:42:21.880Z,3672.00
2022-07-30T06:43:26.324Z,3632.00
2022-07-30T06:44:30.769Z,3640.00
2022-07-30T06:45:35.198Z,3688.00
2022-07-30T06:46:39.688Z,3744.00
2022-07-30T06:47:44.065Z,3784.00
2022-07-30T06:48:48.583Z,3808.00
2022-07-30T06:49:52.988Z,3828.00
2022-07-30T06:50:57.427Z,3824.00
2022-07-30T06:52:01.859Z,3788.00
2022-07-30T06:53:06.297Z,3812.00
2022-07-30T06:54:10.748Z,3840.00
2022-07-30T06:55:15.201Z,3824.00
2022-07-30T06:56:19.643Z,3820.00
2022-07-30T06:57:24.106Z,3868.00
2022-07-30T06:58:28.527Z,3896.00
2022-07-30T06:59:32.983Z,3888.00
2022-07-30T07:00:37.427Z,3916.00
2022-07-30T07:01:41.894Z,3940.00
2022-07-30T07:02:46.290Z,3920.00
2022-07-30T07:03:50.769Z,3936.00
2022-07-30T07:04:55.200Z,3936.00
2022-07-30T07:05:59.631Z,3944.00
2022-07-30T07:07:12.177Z,3936.00
2022-07-30T07:08:08.509Z,3956.00
2022-07-30T07:09:12.970Z,3976.00
2022-07-30T07:10:17.423Z,4036.00
2022-07-30T07:11:21.850Z,4084.00
2022-07-30T07:12:26.290Z,4148.00
2022-07-30T07:13:30.730Z,4108.00
2022-07-30T07:14:35.208Z,4056.00
2022-07-30T07:15:39.632Z,3992.00
2022-07-30T07:16:44.115Z,3972.00
2022-07-30T07:17:48.492Z,3952.00
2022-07-30T07:18:52.992Z,3980.00
2022-07-30T07:20:01.163Z,4000.00
2022-07-30T07:21:01.872Z,4008.00
2022-07-30T07:22:06.291Z,4020.00
2022-07-30T07:23:12.270Z,4036.00
2022-07-30T07:24:15.182Z,4056.00
2022-07-30T07:25:19.604Z,4068.00
2022-07-30T07:26:24.042Z,4064.00
2022-07-30T07:27:28.475Z,4108.00
2022-07-30T07:28:33.492Z,4088.00
2022-07-30T07:29:37.367Z,4088.00
2022-07-30T07:30:42.009Z,4096.00
2022-07-30T07:32:05.526Z,4144.00
2022-07-30T07:32:50.683Z,4144.00
2022-07-30T07:33:55.114Z,4092.00
2022-07-30T07:34:59.574Z,4084.00
2022-07-30T07:36:03.994Z,4044.00
2022-07-30T07:37:08.455Z,4016.00
2022-07-30T07:38:12.891Z,4008.00
2022-07-30T07:39:17.314Z,4044.00
2022-07-30T07:40:21.778Z,4096.00
2022-07-30T07:41:26.224Z,4140.00
2022-07-30T07:42:30.645Z,4164.00
2022-07-30T07:43:35.076Z,4244.00
2022-07-30T07:44:39.536Z,4272.00
2022-07-30T07:45:44.017Z,4312.00
2022-07-30T07:46:48.481Z,4376.00
2022-07-30T07:47:53.475Z,4392.00
2022-07-30T07:48:57.332Z,4412.00
2022-07-30T07:50:01.727Z,4440.00
2022-07-30T07:51:09.585Z,4460.00
2022-07-30T07:52:10.610Z,4548.00
2022-07-30T07:53:15.028Z,4552.00
2022-07-30T07:54:22.078Z,4548.00
2022-07-30T07:55:23.916Z,4520.00
2022-07-30T07:56:28.379Z,4520.00
2022-07-30T07:57:32.797Z,4528.00
2022-07-30T07:58:38.295Z,4524.00
2022-07-30T07:59:41.732Z,4508.00
2022-07-30T08:00:46.143Z,4460.00
2022-07-30T08:01:50.568Z,4436.00
2022-07-30T08:02:55.058Z,4408.00
2022-07-30T08:03:59.430Z,4492.00
2022-07-30T08:05:03.881Z,4496.00
2022-07-30T08:06:12.016Z,4472.00
2022-07-30T08:07:12.764Z,4500.00
2022-07-30T08:08:17.157Z,4532.00
2022-07-30T08:09:21.579Z,4516.00
2022-07-30T08:10:26.060Z,4548.00
2022-07-30T08:11:30.480Z,4588.00
2022-07-30T08:12:35.851Z,4596.00
2022-07-30T08:13:48.018Z,4564.00
2022-07-30T08:14:44.740Z,4512.00
2022-07-30T08:15:49.190Z,4500.00
2022-07-30T08:16:53.711Z,4456.00
2022-07-30T08:17:58.049Z,4448.00
2022-07-30T08:19:02.478Z,4416.00
2022-07-30T08:20:06.930Z,4444.00
2022-07-30T08:21:11.340Z,4464.00
2022-07-30T08:22:15.794Z,4496.00
2022-07-30T08:23:20.212Z,4472.00
2022-07-30T08:24:24.658Z,4624.00
2022-07-30T08:25:29.104Z,4584.00
2022-07-30T08:26:33.542Z,4640.00
2022-07-30T08:27:37.964Z,4688.00
2022-07-30T08:28:42.403Z,4712.00
2022-07-30T08:29:46.855Z,4696.00
2022-07-30T08:30:51.273Z,4704.00
2022-07-30T08:31:55.702Z,4736.00
2022-07-30T08:33:00.132Z,4740.00
2022-07-30T08:34:04.592Z,4724.00
2022-07-30T08:35:09.022Z,4724.00
2022-07-30T08:36:13.442Z,4704.00
2022-07-30T08:37:17.894Z,4648.00
2022-07-30T08:38:22.325Z,4636.00
2022-07-30T08:39:26.764Z,4688.00
2022-07-30T08:40:31.247Z,4712.00
2022-07-30T08:41:35.679Z,4712.00
2022-07-30T08:42:40.088Z,4720.00
2022-07-30T08:43:44.534Z,4720.00
2022-07-30T08:44:48.954Z,4768.00
2022-07-30T08:45:53.417Z,4784.00
2022-07-30T08:46:57.835Z,4776.00
2022-07-30T08:48:02.254Z,4788.00
2022-07-30T08:49:10.820Z,4836.00
2022-07-30T08:50:11.152Z,4856.00
2022-07-30T08:51:15.594Z,4864.00
2022-07-30T08:52:20.049Z,4864.00
2022-07-30T08:53:24.477Z,4880.00
2022-07-30T08:54:28.928Z,4900.00
2022-07-30T08:55:33.367Z,4912.00
2022-07-30T08:56:37.816Z,4944.00
2022-07-30T08:57:42.247Z,4948.00
2022-07-30T08:58:46.687Z,4976.00
2022-07-30T09:00:00.080Z,4944.00
2022-07-30T09:02:00.236Z,4980.00
2022-07-30T09:03:04.462Z,4968.00
2022-07-30T09:04:08.891Z,5008.00
2022-07-30T09:05:13.327Z,4968.00
2022-07-30T09:06:17.768Z,5004.00
2022-07-30T09:07:22.218Z,5040.00
2022-07-30T09:08:26.648Z,5028.00
2022-07-30T09:09:31.516Z,5052.00
2022-07-30T09:10:35.530Z,5084.00
2022-07-30T09:11:39.968Z,5068.00
2022-07-30T09:12:44.387Z,5120.00
2022-07-30T09:13:48.809Z,5128.00
2022-07-30T09:14:53.267Z,5144.00
2022-07-30T09:15:57.720Z,5176.00
2022-07-30T09:17:02.526Z,5168.00
2022-07-30T09:18:06.590Z,5176.00
2022-07-30T09:19:11.020Z,5184.00
2022-07-30T09:20:15.488Z,5228.00
2022-07-30T09:21:19.922Z,5248.00
2022-07-30T09:22:24.350Z,5428.00
2022-07-30T09:23:28.782Z,5676.00
2022-07-30T09:24:33.200Z,5824.00
2022-07-30T09:25:37.657Z,5916.00
2022-07-30T09:26:42.077Z,5676.00
2022-07-30T09:27:46.505Z,5672.00
2022-07-30T09:28:50.933Z,5956.00
2022-07-30T09:29:55.372Z,5820.00
2022-07-30T09:30:59.812Z,5668.00
2022-07-30T09:32:04.709Z,5700.00
2022-07-30T09:33:08.680Z,5964.00
2022-07-30T09:34:13.193Z,5972.00
2022-07-30T09:35:17.581Z,5960.00
2022-07-30T09:36:22.053Z,5976.00
2022-07-30T09:37:26.476Z,5880.00
2022-07-30T09:38:30.914Z,5848.00
2022-07-30T09:39:35.335Z,5908.00
2022-07-30T09:40:39.772Z,5880.00
2022-07-30T09:41:44.213Z,5800.00
2022-07-30T09:42:48.670Z,5704.00
2022-07-30T09:43:53.083Z,5696.00
2022-07-30T09:44:57.513Z,5736.00
2022-07-30T09:46:01.962Z,5760.00
2022-07-30T09:47:06.386Z,5792.00
2022-07-30T09:48:10.795Z,5804.00
2022-07-30T09:49:15.301Z,5768.00
2022-07-30T09:50:30.045Z,5636.00
2022-07-30T09:51:24.133Z,5632.00
2022-07-30T09:52:29.105Z,5632.00
2022-07-30T09:53:32.964Z,5632.00
2022-07-30T09:54:37.389Z,5624.00
2022-07-30T09:55:42.309Z,5628.00
2022-07-30T09:56:53.825Z,5628.00
2022-07-30T09:57:53.110Z,5632.00
2022-07-30T09:58:55.125Z,5592.00
2022-07-30T09:59:59.911Z,5412.00
2022-07-30T10:01:04.008Z,5476.00
2022-07-30T10:02:09.972Z,5460.00
2022-07-30T10:03:33.193Z,5464.00
2022-07-30T10:04:17.305Z,5628.00
2022-07-30T10:05:21.728Z,5740.00
2022-07-30T10:06:26.186Z,5728.00
2022-07-30T10:07:30.599Z,5780.00
2022-07-30T10:08:35.050Z,5788.00
2022-07-30T10:09:39.475Z,5824.00
2022-07-30T10:10:46.945Z,5720.00
2022-07-30T10:11:48.338Z,5728.00
2022-07-30T10:12:52.758Z,5740.00
2022-07-30T10:13:57.181Z,5736.00
2022-07-30T10:15:01.627Z,5932.00
2022-07-30T10:16:06.051Z,5948.00
2022-07-30T10:17:10.501Z,5848.00
2022-07-30T10:18:14.938Z,5852.00
2022-07-30T10:19:23.418Z,5792.00
2022-07-30T10:20:23.798Z,5788.00
2022-07-30T10:21:28.243Z,5840.00
2022-07-30T10:22:32.689Z,5788.00
2022-07-30T10:23:37.130Z,5784.00
2022-07-30T10:24:41.549Z,5836.00
2022-07-30T10:25:49.468Z,6048.00
2022-07-30T10:26:50.411Z,6116.00
2022-07-30T10:27:57.867Z,6108.00
2022-07-30T10:28:59.290Z,6136.00
2022-07-30T10:30:04.281Z,6236.00
2022-07-30T10:31:47.059Z,6212.00
2022-07-30T10:32:12.614Z,6132.00
2022-07-30T10:33:34.749Z,6272.00
2022-07-30T10:34:23.564Z,6124.00
2022-07-30T10:35:34.864Z,6272.00
2022-07-30T10:36:30.344Z,6184.00
2022-07-30T10:37:34.781Z,6300.00
2022-07-30T10:38:41.631Z,6296.00
2022-07-30T10:39:43.631Z,6292.00
2022-07-30T10:40:48.061Z,6336.00
2022-07-30T10:41:54.180Z,6316.00
2022-07-30T10:42:56.932Z,6312.00
2022-07-30T10:44:01.352Z,6320.00
2022-07-30T10:45:05.814Z,6364.00
2022-07-30T10:46:20.140Z,6416.00
2022-07-30T10:47:14.681Z,6440.00
2022-07-30T10:48:19.121Z,6500.00
2022-07-30T10:49:23.565Z,6400.00
2022-07-30T10:50:28.023Z,6380.00
2022-07-30T10:51:34.444Z,6404.00
2022-07-30T10:52:36.882Z,6404.00
2022-07-30T10:53:41.312Z,6432.00
2022-07-30T10:54:45.738Z,6552.00
2022-07-30T10:55:50.183Z,6672.00
2022-07-30T10:56:54.612Z,6752.00
2022-07-30T10:57:59.062Z,6760.00
2022-07-30T10:59:03.485Z,6780.00
2022-07-30T11:00:07.917Z,6756.00
2022-07-30T11:01:18.392Z,6812.00
2022-07-30T11:02:17.768Z,6832.00
2022-07-30T11:03:22.126Z,6900.00
2022-07-30T11:04:26.940Z,6924.00
2022-07-30T11:05:44.202Z,6960.00
2022-07-30T11:06:34.562Z,7024.00
2022-07-30T11:07:39.022Z,7024.00
2022-07-30T11:08:43.445Z,7092.00
2022-07-30T11:09:57.977Z,7212.00
2022-07-30T11:10:52.307Z,7204.00
2022-07-30T11:12:02.200Z,7316.00
2022-07-30T11:13:01.186Z,7548.00
2022-07-30T11:14:05.607Z,7488.00
2022-07-30T11:15:17.375Z,7372.00
2022-07-30T11:16:14.459Z,7808.00
2022-07-30T11:17:18.880Z,7632.00
2022-07-30T11:18:25.023Z,6388.00
2022-07-30T11:19:57.063Z,8452.00
2022-07-30T11:20:32.182Z,8632.00
2022-07-30T11:21:36.598Z,8856.00
2022-07-30T11:22:41.040Z,8824.00
2022-07-30T11:23:45.478Z,8892.00
2022-07-30T11:24:49.899Z,8892.00
2022-07-30T11:25:54.716Z,8816.00
2022-07-30T11:26:58.766Z,8932.00
2022-07-30T11:28:03.218Z,7224.00
2022-07-30T11:29:07.633Z,9132.00
2022-07-30T11:30:12.073Z,8972.00
2022-07-30T11:31:16.448Z,8696.00
2022-07-30T11:32:20.877Z,7032.00
2022-07-30T11:33:32.036Z,7004.00
2022-07-30T11:34:30.751Z,8504.00
2022-07-30T11:35:35.179Z,7056.00
2022-07-30T11:36:38.611Z,7196.00
2022-07-30T11:37:52.193Z,7588.00
2022-07-30T11:38:47.480Z,7904.00
2022-07-30T11:39:51.892Z,9432.00
2022-07-30T11:40:56.322Z,9920.00
2022-07-30T11:42:00.990Z,10448.00
2022-07-30T11:43:05.219Z,10836.00
2022-07-30T11:44:09.653Z,10828.00
2022-07-30T11:45:14.081Z,10596.00
2022-07-30T11:46:18.511Z,10368.00
2022-07-30T11:47:22.931Z,10456.00
2022-07-30T11:48:27.381Z,10344.00
2022-07-30T11:49:31.866Z,10076.00
2022-07-30T11:50:36.235Z,10144.00
2022-07-30T11:51:40.674Z,10048.00
2022-07-30T11:52:45.092Z,10112.00
2022-07-30T11:53:49.557Z,9928.00
2022-07-30T11:54:53.962Z,9272.00
2022-07-30T11:55:58.409Z,10420.00
2022-07-30T11:57:04.818Z,10640.00
2022-07-30T11:58:07.249Z,10868.00
2022-07-30T11:59:11.683Z,10888.00
2022-07-30T12:00:16.100Z,10944.00
2022-07-30T12:01:20.523Z,11040.00
2022-07-30T12:02:24.963Z,11116.00
2022-07-30T12:03:29.875Z,11076.00
2022-07-30T12:04:33.824Z,10624.00
2022-07-30T12:05:38.244Z,11288.00
2022-07-30T12:06:42.663Z,11056.00
2022-07-30T12:07:47.077Z,10944.00
2022-07-30T12:08:55.101Z,10888.00
2022-07-30T12:09:56.004Z,9860.00
2022-07-30T12:11:00.365Z,8932.00
2022-07-30T12:12:04.785Z,10472.00
2022-07-30T12:13:09.216Z,10672.00
2022-07-30T12:14:13.644Z,10808.00
2022-07-30T12:15:18.057Z,10936.00
2022-07-30T12:16:22.541Z,11240.00
2022-07-30T12:17:26.916Z,11208.00
2022-07-30T12:18:31.368Z,11368.00
2022-07-30T12:19:47.787Z,11484.00
2022-07-30T12:20:40.252Z,11656.00
2022-07-30T12:21:45.847Z,11636.00
2022-07-30T12:22:49.076Z,12036.00
2022-07-30T12:23:53.507Z,11648.00
2022-07-30T12:24:57.928Z,11396.00
2022-07-30T12:26:02.379Z,11252.00
2022-07-30T12:27:06.806Z,10816.00
2022-07-30T12:28:11.291Z,8660.00
2022-07-30T12:29:15.710Z,11172.00
2022-07-30T12:30:20.138Z,10768.00
2022-07-30T12:31:24.542Z,11160.00
2022-07-30T12:32:28.960Z,11260.00
2022-07-30T12:33:33.380Z,11304.00
2022-07-30T12:34:37.826Z,11420.00
2022-07-30T12:35:42.240Z,12032.00
2022-07-30T12:36:46.650Z,12352.00
2022-07-30T12:37:51.087Z,12812.00
2022-07-30T12:38:55.529Z,13212.00
2022-07-30T12:39:59.940Z,13748.00
2022-07-30T12:41:04.358Z,12832.00
2022-07-30T12:42:08.770Z,15136.00
2022-07-30T12:43:13.436Z,14592.00
2022-07-30T12:44:17.631Z,10804.00
2022-07-30T12:45:22.040Z,10576.00
2022-07-30T12:46:26.464Z,14400.00
2022-07-30T12:47:30.877Z,12640.00
2022-07-30T12:48:35.300Z,13044.00
2022-07-30T12:49:48.593Z,9484.00
2022-07-30T12:50:44.144Z,9948.00
2022-07-30T12:51:48.558Z,9844.00
2022-07-30T12:52:52.961Z,12448.00
2022-07-30T12:53:57.372Z,15264.00
2022-07-30T12:55:01.794Z,15424.00
2022-07-30T12:56:06.205Z,11116.00
2022-07-30T12:57:10.602Z,10236.00
2022-07-30T12:58:15.004Z,9916.00
2022-07-30T12:59:19.433Z,13352.00
2022-07-30T13:00:23.907Z,15360.00
2022-07-30T13:01:28.345Z,15488.00
2022-07-30T13:02:32.654Z,13696.00
2022-07-30T13:03:37.054Z,8688.00
2022-07-30T13:05:10.176Z,8832.00
2022-07-30T13:05:45.882Z,9460.00
2022-07-30T13:06:50.284Z,10312.00
2022-07-30T13:07:54.705Z,11120.00
2022-07-30T13:08:59.113Z,11932.00
2022-07-30T13:10:03.544Z,18112.00
2022-07-30T13:11:07.945Z,19296.00
2022-07-30T13:12:12.334Z,22080.00
2022-07-30T13:13:16.729Z,19424.00
2022-07-30T13:14:26.531Z,18272.00
2022-07-30T13:15:25.556Z,22720.00
2022-07-30T13:16:29.986Z,22368.00
2022-07-30T13:17:37.753Z,22080.00
2022-07-30T13:18:38.776Z,18016.00
2022-07-30T13:19:43.201Z,22112.00
2022-07-30T13:20:47.578Z,16576.00
2022-07-30T13:21:51.966Z,13500.00
2022-07-30T13:23:01.538Z,12216.00
2022-07-30T13:24:00.749Z,12188.00
2022-07-30T13:25:05.169Z,10648.00
2022-07-30T13:26:09.570Z,10568.00
2022-07-30T13:27:13.966Z,10800.00
2022-07-30T13:28:18.368Z,11512.00
2022-07-30T13:29:22.753Z,13404.00
2022-07-30T13:30:27.171Z,11816.00
2022-07-30T13:31:42.809Z,12360.00
2022-07-30T13:32:35.999Z,12568.00
2022-07-30T13:33:40.399Z,24800.00
2022-07-30T13:34:44.810Z,25408.00
2022-07-30T13:35:49.222Z,24608.00
2022-07-30T13:36:53.609Z,23264.00
2022-07-30T13:37:57.981Z,23328.00